Ave Maria, Florida
Current Conditions -  °F | °C
As of 3:55 PM on Tuesday 21 Oct 2014 (Local Time) from KIMM Reporting Station
Scattered Clouds Scattered Clouds  
Wind Chill: 79°   Ceiling: Unl
Heat Index: 83°   Visibility: 8mi
Dew Point: 79°   Wind: 9mph
Humidity: 100%   Direction: 190°S
Pressure: 29.93"   Gusts: 16mph
Location:  26.4288°N, 81.4387°W
Report Text: KIMM 211955Z AUTO 19008G14KT 8SM FEW070 SCT090 26/26 A2993 RMK A01 P000
Loading
Personal Weather Stations






























Interactive Weather Map
Tropical Storm Tracking
New forecast layout! Learn more

10-Day Weather Forecast

Advertisements
Track Severe Weather on mobile